createdAt,value
2023-01-19T00:00:27.323Z,5.12
2023-01-19T00:02:55.307Z,5.05
2023-01-19T00:05:25.597Z,4.96
2023-01-19T00:07:55.720Z,4.89
2023-01-19T00:10:31.159Z,4.86
2023-01-19T00:12:58.792Z,4.86
2023-01-19T00:15:35.495Z,4.86
2023-01-19T00:18:05.714Z,4.85
2023-01-19T00:20:36.156Z,4.81
2023-01-19T00:23:08.376Z,4.77
2023-01-19T00:25:36.756Z,4.73
2023-01-19T00:28:03.875Z,4.72
2023-01-19T00:30:31.196Z,4.76
2023-01-19T00:32:58.824Z,4.85
2023-01-19T00:35:29.959Z,4.94
2023-01-19T00:37:58.282Z,4.95
2023-01-19T00:40:25.743Z,4.94
2023-01-19T00:42:55.653Z,5.01
2023-01-19T00:45:24.099Z,5.08
2023-01-19T00:47:57.315Z,5.11
2023-01-19T00:50:25.720Z,5.14
2023-01-19T00:52:53.984Z,5.21
2023-01-19T00:55:21.238Z,5.27
2023-01-19T00:57:49.001Z,5.26
2023-01-19T01:00:20.953Z,5.24
2023-01-19T01:02:48.799Z,5.21
2023-01-19T01:05:18.545Z,5.20
2023-01-19T01:07:45.794Z,5.21
2023-01-19T01:10:19.293Z,5.20
2023-01-19T01:12:54.944Z,5.22
2023-01-19T01:15:29.983Z,5.20
2023-01-19T01:18:02.662Z,5.23
2023-01-19T01:20:30.737Z,5.30
2023-01-19T01:22:58.496Z,5.39
2023-01-19T01:25:34.351Z,5.47
2023-01-19T01:28:03.264Z,5.53
2023-01-19T01:30:30.288Z,5.55
2023-01-19T01:32:57.782Z,5.55
2023-01-19T01:35:28.384Z,5.57
2023-01-19T01:37:58.589Z,5.61
2023-01-19T01:40:28.721Z,5.66
2023-01-19T01:42:55.873Z,5.68
2023-01-19T01:45:34.650Z,5.68
2023-01-19T01:48:27.960Z,5.67
2023-01-19T01:51:39.055Z,5.65
2023-01-19T01:54:26.979Z,5.63
2023-01-19T01:56:57.711Z,5.65
2023-01-19T01:59:35.027Z,5.69
2023-01-19T02:49:59.460Z,5.52
2023-01-19T02:52:27.049Z,5.90
2023-01-19T02:55:18.738Z,5.88
2023-01-19T02:58:01.141Z,5.84
2023-01-19T03:00:34.225Z,5.80
2023-01-19T03:03:10.655Z,5.78
2023-01-19T03:05:43.686Z,5.76
2023-01-19T03:08:28.036Z,5.76
2023-01-19T03:11:03.564Z,5.72
2023-01-19T03:13:39.645Z,5.68
2023-01-19T03:16:29.881Z,5.65
2023-01-19T03:19:00.305Z,5.64
2023-01-19T03:21:28.036Z,5.62
2023-01-19T03:23:57.230Z,5.57
2023-01-19T03:26:26.319Z,5.47
2023-01-19T03:28:53.205Z,5.37
2023-01-19T03:31:22.834Z,5.32
2023-01-19T03:33:57.866Z,5.32
2023-01-19T03:36:29.972Z,5.29
2023-01-19T03:38:57.637Z,5.29
2023-01-19T03:41:24.696Z,5.31
2023-01-19T03:43:52.252Z,5.34
2023-01-19T03:46:19.411Z,5.36
2023-01-19T03:48:46.652Z,5.39
2023-01-19T03:51:14.723Z,5.41
2023-01-19T03:53:42.177Z,5.42
2023-01-19T03:56:21.291Z,5.38
2023-01-19T03:58:48.457Z,5.33
2023-01-19T04:01:15.881Z,5.30
2023-01-19T04:03:43.069Z,5.29
2023-01-19T04:06:10.384Z,5.27
2023-01-19T04:08:37.366Z,5.22
2023-01-19T04:11:04.415Z,5.16
2023-01-19T04:13:32.130Z,5.13
2023-01-19T04:16:02.905Z,5.14
2023-01-19T04:18:31.289Z,5.17
2023-01-19T04:21:00.802Z,5.17
2023-01-19T04:23:28.357Z,5.15
2023-01-19T04:25:59.194Z,5.15
2023-01-19T04:28:26.652Z,5.09
2023-01-19T04:30:53.727Z,5.01
2023-01-19T04:33:21.262Z,4.93
2023-01-19T04:35:48.819Z,4.89
2023-01-19T04:38:15.878Z,4.89
2023-01-19T04:40:42.935Z,4.91
2023-01-19T04:43:10.130Z,4.92
2023-01-19T04:45:37.249Z,4.89
2023-01-19T04:48:05.188Z,4.86
2023-01-19T04:50:32.496Z,4.88
2023-01-19T04:52:59.811Z,4.93
2023-01-19T04:55:26.859Z,5.03
2023-01-19T04:57:54.455Z,5.13
2023-01-19T05:00:21.577Z,5.23
2023-01-19T05:02:48.720Z,5.27
2023-01-19T05:05:15.758Z,5.29
2023-01-19T05:07:43.114Z,5.28
2023-01-19T05:10:11.284Z,5.26
2023-01-19T05:12:38.328Z,5.24
2023-01-19T05:15:09.889Z,5.23
2023-01-19T05:17:37.139Z,5.22
2023-01-19T05:20:04.823Z,5.19
2023-01-19T05:22:32.376Z,5.10
2023-01-19T05:24:59.317Z,5.06
2023-01-19T05:27:26.367Z,5.10
2023-01-19T05:29:53.401Z,5.17
2023-01-19T05:32:20.346Z,5.21
2023-01-19T05:34:47.706Z,5.22
2023-01-19T05:37:14.647Z,5.18
2023-01-19T05:39:41.531Z,5.17
2023-01-19T05:42:08.655Z,5.19
2023-01-19T05:44:35.686Z,5.22
2023-01-19T05:47:02.643Z,5.22
2023-01-19T05:49:29.681Z,5.16
2023-01-19T05:51:56.936Z,5.14
2023-01-19T05:54:24.186Z,5.18
2023-01-19T05:56:51.234Z,5.20
2023-01-19T05:59:24.289Z,5.18
2023-01-19T06:01:52.280Z,5.15
2023-01-19T06:04:20.266Z,5.18
2023-01-19T06:06:50.341Z,5.23
2023-01-19T06:09:17.941Z,5.30
2023-01-19T06:11:45.489Z,5.34
2023-01-19T06:14:12.553Z,5.35
2023-01-19T06:16:39.542Z,5.35
2023-01-19T06:19:06.652Z,5.34
2023-01-19T06:21:34.544Z,5.33
2023-01-19T06:24:01.495Z,5.31
2023-01-19T06:26:28.583Z,5.25
2023-01-19T06:28:55.579Z,5.13
2023-01-19T06:31:22.724Z,4.97
2023-01-19T06:33:50.375Z,4.75
2023-01-19T06:36:17.212Z,4.57
2023-01-19T06:38:44.266Z,4.44
2023-01-19T06:41:11.319Z,4.37
2023-01-19T06:43:38.263Z,4.33
2023-01-19T06:46:05.445Z,4.26
2023-01-19T06:48:32.336Z,4.25
2023-01-19T06:50:59.930Z,4.30
2023-01-19T06:53:28.544Z,4.38
2023-01-19T06:56:00.157Z,4.42
2023-01-19T06:58:28.220Z,4.45
2023-01-19T07:00:55.324Z,4.48
2023-01-19T07:03:23.407Z,4.52
2023-01-19T07:05:53.874Z,4.57
2023-01-19T07:08:20.920Z,4.63
2023-01-19T07:11:25.246Z,4.67
2023-01-19T07:13:35.359Z,4.69
2023-01-19T07:16:08.142Z,4.69
2023-01-19T07:18:36.246Z,4.68
2023-01-19T07:21:03.689Z,4.69
2023-01-19T07:23:31.063Z,4.70
2023-01-19T07:25:58.825Z,4.71
2023-01-19T07:28:25.872Z,4.73
2023-01-19T07:30:53.527Z,4.72
2023-01-19T07:33:22.272Z,4.67
2023-01-19T07:35:49.788Z,4.59
2023-01-19T07:38:17.957Z,4.50
2023-01-19T07:40:45.310Z,4.44
2023-01-19T07:43:12.258Z,4.38
2023-01-19T07:45:39.344Z,4.34
2023-01-19T07:48:06.899Z,4.33
2023-01-19T07:50:34.015Z,4.35
2023-01-19T07:53:08.286Z,4.36
2023-01-19T07:55:35.497Z,4.35
2023-01-19T07:58:05.301Z,4.33
2023-01-19T08:00:33.293Z,4.31
2023-01-19T08:03:01.308Z,4.35
2023-01-19T08:05:31.259Z,4.40
2023-01-19T08:07:58.615Z,4.44
2023-01-19T08:10:26.897Z,4.45
2023-01-19T08:12:54.659Z,4.47
2023-01-19T08:15:24.240Z,4.52
2023-01-19T08:17:58.582Z,4.56
2023-01-19T08:20:26.138Z,4.60
2023-01-19T08:23:00.303Z,4.61
2023-01-19T08:25:32.831Z,4.66
2023-01-19T08:28:00.102Z,4.68
2023-01-19T08:30:27.182Z,4.70
2023-01-19T08:32:54.972Z,4.75
2023-01-19T08:35:22.967Z,4.78
2023-01-19T08:37:50.939Z,4.84
2023-01-19T08:40:18.729Z,4.88
2023-01-19T08:42:46.160Z,4.92
2023-01-19T08:45:13.274Z,4.98
2023-01-19T08:47:40.283Z,4.99
2023-01-19T08:50:08.125Z,5.04
2023-01-19T08:52:35.887Z,5.10
2023-01-19T08:55:03.036Z,5.15
2023-01-19T08:57:30.300Z,5.22
2023-01-19T08:59:57.235Z,5.19
2023-01-19T09:02:24.272Z,5.12
2023-01-19T09:04:51.950Z,5.06
2023-01-19T09:07:19.099Z,5.03
2023-01-19T09:09:46.073Z,4.97
2023-01-19T09:12:13.088Z,4.93
2023-01-19T09:14:40.140Z,4.93
2023-01-19T09:17:07.087Z,4.94
2023-01-19T09:19:35.164Z,4.96
2023-01-19T09:22:02.309Z,4.96
2023-01-19T09:24:29.249Z,4.96
2023-01-19T09:26:56.197Z,4.99
2023-01-19T09:29:23.141Z,5.01
2023-01-19T09:31:50.162Z,5.00
2023-01-19T09:34:17.339Z,5.00
2023-01-19T09:36:44.387Z,5.03
2023-01-19T09:39:11.436Z,5.01
2023-01-19T09:41:38.892Z,5.05
2023-01-19T09:44:05.951Z,5.09
2023-01-19T09:46:40.834Z,5.11
2023-01-19T09:49:16.536Z,5.13
2023-01-19T09:51:50.296Z,5.16
2023-01-19T09:54:23.424Z,5.22
2023-01-19T09:56:52.742Z,5.30
2023-01-19T09:59:21.309Z,5.37
2023-01-19T10:02:08.422Z,5.42
2023-01-19T10:04:44.203Z,5.47
2023-01-19T10:07:20.438Z,5.54
2023-01-19T10:10:15.542Z,5.64
2023-01-19T10:13:13.832Z,5.74
2023-01-19T10:15:49.904Z,5.80
2023-01-19T10:18:23.183Z,5.80
2023-01-19T10:20:52.293Z,5.87
2023-01-19T10:23:44.933Z,5.92
2023-01-19T10:26:42.898Z,5.95
2023-01-19T10:29:22.043Z,5.95
2023-01-19T10:31:49.156Z,5.94
2023-01-19T10:34:21.573Z,5.91
2023-01-19T10:36:50.851Z,5.97
2023-01-19T10:39:18.757Z,6.04
2023-01-19T10:41:53.005Z,6.11
2023-01-19T10:44:27.524Z,6.17
2023-01-19T10:46:56.058Z,6.19
2023-01-19T10:49:35.901Z,6.20
2023-01-19T10:52:03.247Z,6.28
2023-01-19T10:54:30.719Z,6.34
2023-01-19T10:57:08.548Z,6.38
2023-01-19T10:59:48.069Z,6.40
2023-01-19T11:02:23.064Z,6.43
2023-01-19T11:04:53.135Z,6.46
2023-01-19T11:07:21.185Z,6.47
2023-01-19T11:09:48.737Z,6.45
2023-01-19T11:12:17.314Z,6.43
2023-01-19T11:14:44.260Z,6.47
2023-01-19T11:17:25.482Z,6.52
2023-01-19T11:19:59.901Z,6.57
2023-01-19T11:22:33.393Z,6.55
2023-01-19T11:25:04.817Z,6.55
2023-01-19T11:27:33.628Z,6.59
2023-01-19T11:30:18.261Z,6.66
2023-01-19T11:32:46.432Z,6.67
2023-01-19T11:35:36.730Z,6.65
2023-01-19T11:38:17.089Z,6.62
2023-01-19T11:40:51.143Z,6.62
2023-01-19T11:43:18.079Z,6.68
2023-01-19T11:45:45.096Z,6.75
2023-01-19T11:48:21.252Z,6.77
2023-01-19T11:50:48.196Z,6.76
2023-01-19T11:53:25.617Z,6.79
2023-01-19T11:56:05.033Z,6.81
2023-01-19T11:58:33.011Z,6.84
2023-01-19T12:01:11.873Z,6.88
2023-01-19T12:03:44.638Z,6.93
2023-01-19T12:06:16.064Z,6.93
2023-01-19T12:08:51.749Z,6.96
2023-01-19T12:11:44.362Z,7.00
2023-01-19T12:14:17.708Z,7.01
2023-01-19T12:16:45.165Z,7.00
2023-01-19T12:19:17.293Z,7.07
2023-01-19T12:21:44.632Z,7.13
2023-01-19T12:24:26.402Z,7.17
2023-01-19T12:26:57.471Z,7.21
2023-01-19T12:29:26.564Z,7.22
2023-01-19T12:32:15.327Z,7.24
2023-01-19T12:34:52.806Z,7.28
2023-01-19T12:37:42.290Z,7.31
2023-01-19T12:40:24.709Z,7.34
2023-01-19T12:42:56.991Z,7.39
2023-01-19T12:45:25.832Z,7.42
2023-01-19T12:47:53.315Z,7.43
2023-01-19T12:50:23.577Z,7.47
2023-01-19T12:52:57.143Z,7.50
2023-01-19T12:55:28.076Z,7.53
2023-01-19T12:58:20.831Z,7.56
2023-01-19T13:00:49.315Z,7.59
2023-01-19T13:03:16.357Z,7.60
2023-01-19T13:05:43.309Z,7.61
2023-01-19T13:08:10.252Z,7.61
2023-01-19T13:11:15.962Z,7.64
2023-01-19T13:13:44.275Z,7.66
2023-01-19T13:16:20.970Z,7.68
2023-01-19T13:19:15.900Z,7.72
2023-01-19T13:21:46.280Z,7.75
2023-01-19T13:24:23.063Z,7.74
2023-01-19T13:26:50.015Z,7.77
2023-01-19T13:29:20.015Z,7.81
2023-01-19T13:31:49.321Z,7.83
2023-01-19T13:34:24.714Z,7.89
2023-01-19T13:36:53.246Z,7.96
2023-01-19T13:39:32.582Z,7.97
2023-01-19T13:42:01.288Z,7.97
2023-01-19T13:44:39.424Z,7.99
2023-01-19T13:47:08.218Z,8.02
2023-01-19T13:49:44.205Z,8.06
2023-01-19T13:52:15.672Z,8.10
2023-01-19T13:54:53.766Z,8.12
2023-01-19T13:57:29.029Z,8.12
2023-01-19T14:00:12.180Z,8.11
2023-01-19T14:02:40.327Z,8.12
2023-01-19T14:05:13.586Z,8.15
2023-01-19T14:07:40.699Z,8.17
2023-01-19T14:10:12.667Z,8.19
2023-01-19T14:12:51.220Z,8.22
2023-01-19T14:15:25.395Z,8.24
2023-01-19T14:18:30.204Z,8.26
2023-01-19T14:21:01.266Z,8.27
2023-01-19T14:23:47.189Z,8.29
2023-01-19T14:26:48.913Z,8.33
2023-01-19T14:29:21.873Z,8.38
2023-01-19T14:31:49.943Z,8.42
2023-01-19T14:34:29.387Z,8.46
2023-01-19T14:36:56.337Z,8.47
2023-01-19T14:39:24.912Z,8.49
2023-01-19T14:41:54.840Z,8.53
2023-01-19T14:44:42.151Z,8.57
2023-01-19T14:47:21.999Z,8.62
2023-01-19T14:49:49.164Z,8.66
2023-01-19T14:52:22.109Z,8.69
2023-01-19T14:54:49.085Z,8.72
2023-01-19T14:58:33.262Z,8.76
2023-01-19T15:01:00.508Z,8.74
2023-01-19T15:03:43.595Z,8.77
2023-01-19T15:06:19.084Z,8.76
2023-01-19T15:08:46.429Z,8.78
2023-01-19T15:11:17.767Z,8.82
2023-01-19T15:13:44.812Z,8.84
2023-01-19T15:16:11.693Z,8.81
2023-01-19T15:18:39.221Z,8.82
2023-01-19T15:21:06.577Z,8.86
2023-01-19T15:23:33.543Z,8.88
2023-01-19T15:26:04.580Z,8.89
2023-01-19T15:28:31.816Z,8.90
2023-01-19T15:30:59.562Z,8.92
2023-01-19T15:33:32.915Z,8.93
2023-01-19T15:35:59.919Z,8.95
2023-01-19T15:38:27.996Z,8.96
2023-01-19T15:40:55.038Z,8.98
2023-01-19T15:43:22.209Z,9.00
2023-01-19T15:46:01.042Z,9.00
2023-01-19T15:48:28.162Z,9.00
2023-01-19T15:50:55.210Z,9.01
2023-01-19T15:53:24.415Z,9.03
2023-01-19T15:55:52.499Z,9.05
2023-01-19T15:58:20.825Z,9.06
2023-01-19T16:00:57.819Z,9.08
2023-01-19T16:03:25.611Z,9.07
2023-01-19T16:05:52.654Z,9.08
2023-01-19T20:18:19.255Z,9.11
2023-01-19T20:20:46.819Z,9.56
2023-01-19T20:23:13.757Z,9.54
2023-01-19T20:25:40.904Z,9.49
2023-01-19T20:28:08.470Z,9.43
2023-01-19T20:30:35.771Z,9.39
2023-01-19T20:33:03.001Z,9.34
2023-01-19T20:35:30.325Z,9.27
2023-01-19T20:37:57.475Z,9.20
2023-01-19T20:40:24.626Z,9.13
2023-01-19T20:42:51.881Z,9.05
2023-01-19T20:45:21.043Z,9.00
2023-01-19T20:47:48.232Z,8.95
2023-01-19T20:50:15.585Z,8.91
2023-01-19T20:52:42.840Z,8.86
2023-01-19T20:55:10.605Z,8.77
2023-01-19T20:57:37.864Z,8.72
2023-01-19T21:00:05.718Z,8.67
2023-01-19T21:02:32.830Z,8.65
2023-01-19T21:05:00.224Z,8.63
2023-01-19T21:07:27.683Z,8.61
2023-01-19T21:09:54.876Z,8.58
2023-01-19T21:12:23.431Z,8.53
2023-01-19T21:14:50.670Z,8.49
2023-01-19T21:17:17.870Z,8.44
2023-01-19T21:19:44.971Z,8.40
2023-01-19T21:22:12.125Z,8.37
2023-01-19T21:24:39.489Z,8.34
2023-01-19T21:27:06.832Z,8.32
2023-01-19T21:29:34.087Z,8.29
2023-01-19T21:32:01.448Z,8.22
2023-01-19T21:34:28.469Z,8.17
2023-01-19T21:36:55.519Z,8.15
2023-01-19T21:39:22.664Z,8.12
2023-01-19T21:41:49.915Z,8.10
2023-01-19T21:44:17.068Z,8.06
2023-01-19T21:46:44.142Z,8.03
2023-01-19T21:49:16.106Z,8.02
2023-01-19T21:51:43.255Z,8.00
2023-01-19T21:54:10.611Z,7.99
2023-01-19T21:56:38.599Z,7.99
2023-01-19T21:59:06.047Z,8.00
2023-01-19T22:01:33.940Z,8.02
